To NAV CANADA Home Page Login to a new session Search on AWWS site Disclaimer Vers la page française équivalente Tips FAQ What's new on the site To the Forecasts and Observations / NOTAM section To "File a Flight Plan" website Publications and other links Update of the User's profile FIC Telephone Numbers My Weather Data Folder Route Weather Data Regional Weather Data Local Weather Data To the Forecasts and Observations / NOTAM section
Request Generated 08/12/2020 at 00:43:40 UTC . Weather information available at that time is displayed.

METAR/TAF

If you find any discrepancies between the coded METAR/TAF and the plain language METAR/TAF please use the coded METAR/TAF. LWIS bulletins are not decoded in plain language.

TORONTO/LESTER B. PEARSON INTL/ON    

METAR CYYZ 120000Z 30014KT 15SM FEW250 25/12 A2991 RMK CI1 SLP128 DENSITY ALT 1 0FT=
METAR
LOCATION
CYYZ - TORONTO/LESTER B. PEARSON INTL/ON
DATE - TIME
12 AUGUST 2020 - 0000 UTC
WIND
300 TRUE @ 14  KNOTS
VISIBILITY
15 STAT.  MILES
RUNWAY VISUAL RANGE
WEATHER
CLOUDINESS
FEW CLOUDS (1/8 - 2/8) 25000  FT
TEMP / DEWPOINT
25 C / 12 C
ALTIMETER
29.91 IN HG
RECENT WEATHER
WIND SHEAR

METAR CYYZ 112300Z 32014KT 15SM FEW050 FEW250 27/15 A2990 RMK CU1CI1 CU TR SLP1 DENSITY ALT 2100FT=
METAR
LOCATION
CYYZ - TORONTO/LESTER B. PEARSON INTL/ON
DATE - TIME
11 AUGUST 2020 - 2300 UTC
WIND
320 TRUE @ 14  KNOTS
VISIBILITY
15 STAT.  MILES
RUNWAY VISUAL RANGE
WEATHER
CLOUDINESS
FEW CLOUDS (1/8 - 2/8) 5000  FT
FEW CLOUDS (1/8 - 2/8) 25000  FT
TEMP / DEWPOINT
27 C / 15 C
ALTIMETER
29.90 IN HG
RECENT WEATHER
WIND SHEAR

METAR CYYZ 112200Z 30015KT 15SM SCT050 27/18 A2989 RMK CU3 SLP121 DENSITY ALT 2 0FT=
METAR
LOCATION
CYYZ - TORONTO/LESTER B. PEARSON INTL/ON
DATE - TIME
11 AUGUST 2020 - 2200 UTC
WIND
300 TRUE @ 15  KNOTS
VISIBILITY
15 STAT.  MILES
RUNWAY VISUAL RANGE
WEATHER
CLOUDINESS
SCATTERED CLOUDS (3/8 - 4/8) 5000  FT
TEMP / DEWPOINT
27 C / 18 C
ALTIMETER
29.89 IN HG
RECENT WEATHER
WIND SHEAR

TAF CYYZ 112339Z 1200/1306 32012KT P6SM FEW040 BECMG 1212/1214 18008KT BECMG 1300/1302 01006KT RMK NXT FCST BY 120300Z=
TAF
LOCATION

CYYZ - TORONTO/LESTER B. PEARSON INTL/ON
VALIDITY [UTC]
11 AUG - 2339 to
13 AUG - 0600
 
TIMES
[UTC]
WIND
[DEGREES TRUE]
VISIBILITY
[STAT. MILES]
WEATHER
CLOUDINESS
[FEET AGL]
 
12 AUG - 0000 to
13 AUG - 0600
320 @ 12 KNOTS
6+
NIL
4000 FEW
BECOMING
12 AUG - 1200 to
12 AUG - 1400
180 @ 8 KNOTS
 
 
 
BECOMING
13 AUG - 0000 to
13 AUG - 0200
10 @ 6 KNOTS
 
 
 
REMARKS
THE NEXT FORECAST WILL BE ISSUED BY 0300 UTC ON DAY 12


Your time UTC time
Weather data provided by Environment Canada and NAV CANADA